sensor_id;sensor_type;location;lat;lon;timestamp;temperature;humidity
67163;DHT22;54092;53.088;8.850;2022-12-04T00:01:08;0.30;99.90
67163;DHT22;54092;53.088;8.850;2022-12-04T00:03:34;0.30;99.90
67163;DHT22;54092;53.088;8.850;2022-12-04T00:06:04;0.30;99.90
67163;DHT22;54092;53.088;8.850;2022-12-04T00:08:30;0.30;99.90
67163;DHT22;54092;53.088;8.850;2022-12-04T00:10:56;0.30;99.90
67163;DHT22;54092;53.088;8.850;2022-12-04T00:13:21;0.30;99.90
67163;DHT22;54092;53.088;8.850;2022-12-04T00:15:47;0.30;99.90
67163;DHT22;54092;53.088;8.850;2022-12-04T00:18:12;0.30;99.90
67163;DHT22;54092;53.088;8.850;2022-12-04T00:20:38;0.30;99.90
67163;DHT22;54092;53.088;8.850;2022-12-04T00:23:05;0.30;99.90
67163;DHT22;54092;53.088;8.850;2022-12-04T00:25:30;0.30;99.90
67163;DHT22;54092;53.088;8.850;2022-12-04T00:27:56;0.30;99.90
67163;DHT22;54092;53.088;8.850;2022-12-04T00:30:21;0.30;99.90
67163;DHT22;54092;53.088;8.850;2022-12-04T00:32:47;0.30;99.90
67163;DHT22;54092;53.088;8.850;2022-12-04T00:35:12;0.30;99.90
67163;DHT22;54092;53.088;8.850;2022-12-04T00:37:38;0.30;99.90
67163;DHT22;54092;53.088;8.850;2022-12-04T00:40:04;0.40;99.90
67163;DHT22;54092;53.088;8.850;2022-12-04T00:42:29;0.40;99.90
67163;DHT22;54092;53.088;8.850;2022-12-04T00:44:55;0.30;99.90
67163;DHT22;54092;53.088;8.850;2022-12-04T00:47:21;0.40;99.90
67163;DHT22;54092;53.088;8.850;2022-12-04T00:49:46;0.40;99.90
67163;DHT22;54092;53.088;8.850;2022-12-04T00:52:12;0.40;99.90
67163;DHT22;54092;53.088;8.850;2022-12-04T00:54:37;0.40;99.90
67163;DHT22;54092;53.088;8.850;2022-12-04T00:57:03;0.40;99.90
67163;DHT22;54092;53.088;8.850;2022-12-04T00:59:28;0.40;99.90
67163;DHT22;54092;53.088;8.850;2022-12-04T01:01:54;0.40;99.90
67163;DHT22;54092;53.088;8.850;2022-12-04T01:04:19;0.40;99.90
67163;DHT22;54092;53.088;8.850;2022-12-04T01:06:46;0.40;99.90
67163;DHT22;54092;53.088;8.850;2022-12-04T01:09:11;0.40;99.90
67163;DHT22;54092;53.088;8.850;2022-12-04T01:11:37;0.40;99.90
67163;DHT22;54092;53.088;8.850;2022-12-04T01:14:03;0.40;99.90
67163;DHT22;54092;53.088;8.850;2022-12-04T01:16:34;0.40;99.90
67163;DHT22;54092;53.088;8.850;2022-12-04T01:19:00;0.50;99.90
67163;DHT22;54092;53.088;8.850;2022-12-04T01:21:26;0.50;99.90
67163;DHT22;54092;53.088;8.850;2022-12-04T01:23:52;0.50;99.90
67163;DHT22;54092;53.088;8.850;2022-12-04T01:26:17;0.50;99.90
67163;DHT22;54092;53.088;8.850;2022-12-04T01:28:43;0.50;99.90
67163;DHT22;54092;53.088;8.850;2022-12-04T01:31:12;0.50;99.90
67163;DHT22;54092;53.088;8.850;2022-12-04T01:33:38;0.50;99.90
67163;DHT22;54092;53.088;8.850;2022-12-04T01:36:07;0.50;99.90
67163;DHT22;54092;53.088;8.850;2022-12-04T01:38:36;0.50;99.90
67163;DHT22;54092;53.088;8.850;2022-12-04T01:41:02;0.50;99.90
67163;DHT22;54092;53.088;8.850;2022-12-04T01:43:30;0.50;99.90
67163;DHT22;54092;53.088;8.850;2022-12-04T01:45:57;0.50;99.90
67163;DHT22;54092;53.088;8.850;2022-12-04T01:53:30;0.60;99.90
67163;DHT22;54092;53.088;8.850;2022-12-04T01:55:56;0.50;99.90
67163;DHT22;54092;53.088;8.850;2022-12-04T01:58:27;0.60;99.90
67163;DHT22;54092;53.088;8.850;2022-12-04T02:00:58;0.60;99.90
67163;DHT22;54092;53.088;8.850;2022-12-04T02:03:25;0.60;99.90
67163;DHT22;54092;53.088;8.850;2022-12-04T02:05:51;0.50;99.90
67163;DHT22;54092;53.088;8.850;2022-12-04T02:08:16;0.60;99.90
67163;DHT22;54092;53.088;8.850;2022-12-04T02:11:01;0.60;99.90
67163;DHT22;54092;53.088;8.850;2022-12-04T02:19:02;0.60;99.90
67163;DHT22;54092;53.088;8.850;2022-12-04T02:21:42;0.60;99.90
67163;DHT22;54092;53.088;8.850;2022-12-04T02:27:42;0.60;99.90
67163;DHT22;54092;53.088;8.850;2022-12-04T02:30:13;0.60;99.90
67163;DHT22;54092;53.088;8.850;2022-12-04T02:32:46;0.60;99.90
67163;DHT22;54092;53.088;8.850;2022-12-04T02:35:30;0.60;99.90
67163;DHT22;54092;53.088;8.850;2022-12-04T02:38:05;0.70;99.90
67163;DHT22;54092;53.088;8.850;2022-12-04T02:40:44;0.60;99.90
67163;DHT22;54092;53.088;8.850;2022-12-04T02:46:08;0.60;99.90
67163;DHT22;54092;53.088;8.850;2022-12-04T02:48:39;0.60;99.90
67163;DHT22;54092;53.088;8.850;2022-12-04T02:51:07;0.70;99.90
67163;DHT22;54092;53.088;8.850;2022-12-04T02:53:39;0.60;99.90
67163;DHT22;54092;53.088;8.850;2022-12-04T02:56:08;0.60;99.90
67163;DHT22;54092;53.088;8.850;2022-12-04T02:58:38;0.70;99.90
67163;DHT22;54092;53.088;8.850;2022-12-04T03:01:08;0.70;99.90
67163;DHT22;54092;53.088;8.850;2022-12-04T03:03:49;0.60;99.90
67163;DHT22;54092;53.088;8.850;2022-12-04T03:06:17;0.70;99.90
67163;DHT22;54092;53.088;8.850;2022-12-04T03:08:49;0.60;99.90
67163;DHT22;54092;53.088;8.850;2022-12-04T03:11:15;0.60;99.90
67163;DHT22;54092;53.088;8.850;2022-12-04T03:13:54;0.60;99.90
67163;DHT22;54092;53.088;8.850;2022-12-04T03:16:33;0.60;99.90
67163;DHT22;54092;53.088;8.850;2022-12-04T03:19:01;0.60;99.90
67163;DHT22;54092;53.088;8.850;2022-12-04T03:21:34;0.70;99.90
67163;DHT22;54092;53.088;8.850;2022-12-04T03:24:19;0.60;99.90
67163;DHT22;54092;53.088;8.850;2022-12-04T03:26:53;0.70;99.90
67163;DHT22;54092;53.088;8.850;2022-12-04T03:29:24;0.60;99.90
67163;DHT22;54092;53.088;8.850;2022-12-04T03:32:07;0.60;99.90
67163;DHT22;54092;53.088;8.850;2022-12-04T03:34:41;0.60;99.90
67163;DHT22;54092;53.088;8.850;2022-12-04T03:37:18;0.60;99.90
67163;DHT22;54092;53.088;8.850;2022-12-04T03:39:56;0.60;99.90
67163;DHT22;54092;53.088;8.850;2022-12-04T03:42:36;0.60;99.90
67163;DHT22;54092;53.088;8.850;2022-12-04T03:45:05;0.60;99.90
67163;DHT22;54092;53.088;8.850;2022-12-04T03:47:40;0.60;99.90
67163;DHT22;54092;53.088;8.850;2022-12-04T03:50:16;0.60;99.90
67163;DHT22;54092;53.088;8.850;2022-12-04T03:53:02;0.60;99.90
67163;DHT22;54092;53.088;8.850;2022-12-04T03:58:12;0.60;99.90
67163;DHT22;54092;53.088;8.850;2022-12-04T04:00:41;0.60;99.90
67163;DHT22;54092;53.088;8.850;2022-12-04T04:03:23;0.60;99.90
67163;DHT22;54092;53.088;8.850;2022-12-04T04:05:54;0.60;99.90
67163;DHT22;54092;53.088;8.850;2022-12-04T04:08:25;0.60;99.90
67163;DHT22;54092;53.088;8.850;2022-12-04T04:10:59;0.60;99.90
67163;DHT22;54092;53.088;8.850;2022-12-04T04:13:36;0.60;99.90
67163;DHT22;54092;53.088;8.850;2022-12-04T04:16:26;0.60;99.90
67163;DHT22;54092;53.088;8.850;2022-12-04T04:19:14;0.60;99.90
67163;DHT22;54092;53.088;8.850;2022-12-04T04:21:59;0.60;99.90
67163;DHT22;54092;53.088;8.850;2022-12-04T04:24:47;0.60;99.90
67163;DHT22;54092;53.088;8.850;2022-12-04T04:27:14;0.60;99.90
67163;DHT22;54092;53.088;8.850;2022-12-04T04:29:41;0.60;99.90
67163;DHT22;54092;53.088;8.850;2022-12-04T04:32:13;0.60;99.90
67163;DHT22;54092;53.088;8.850;2022-12-04T04:37:31;0.60;99.90
67163;DHT22;54092;53.088;8.850;2022-12-04T04:45:26;0.60;99.90
67163;DHT22;54092;53.088;8.850;2022-12-04T04:48:18;0.60;99.90
67163;DHT22;54092;53.088;8.850;2022-12-04T04:50:46;0.70;99.90
67163;DHT22;54092;53.088;8.850;2022-12-04T04:53:16;0.70;99.90
67163;DHT22;54092;53.088;8.850;2022-12-04T04:55:43;0.70;99.90
67163;DHT22;54092;53.088;8.850;2022-12-04T04:58:12;0.70;99.90
67163;DHT22;54092;53.088;8.850;2022-12-04T05:00:39;0.70;99.90
67163;DHT22;54092;53.088;8.850;2022-12-04T05:03:05;0.70;99.90
67163;DHT22;54092;53.088;8.850;2022-12-04T05:05:30;0.80;99.90
67163;DHT22;54092;53.088;8.850;2022-12-04T05:07:56;0.70;99.90
67163;DHT22;54092;53.088;8.850;2022-12-04T05:10:21;0.70;99.90
67163;DHT22;54092;53.088;8.850;2022-12-04T05:12:47;0.80;99.90
67163;DHT22;54092;53.088;8.850;2022-12-04T05:15:12;0.80;99.90
67163;DHT22;54092;53.088;8.850;2022-12-04T05:17:38;0.80;99.90
67163;DHT22;54092;53.088;8.850;2022-12-04T05:20:04;0.80;99.90
67163;DHT22;54092;53.088;8.850;2022-12-04T05:22:33;0.80;99.90
67163;DHT22;54092;53.088;8.850;2022-12-04T05:24:59;0.70;99.90
67163;DHT22;54092;53.088;8.850;2022-12-04T05:27:26;0.80;99.90
67163;DHT22;54092;53.088;8.850;2022-12-04T05:29:53;0.80;99.90
67163;DHT22;54092;53.088;8.850;2022-12-04T05:32:19;0.80;99.90
67163;DHT22;54092;53.088;8.850;2022-12-04T05:34:49;0.80;99.90
67163;DHT22;54092;53.088;8.850;2022-12-04T05:37:15;0.90;99.90
67163;DHT22;54092;53.088;8.850;2022-12-04T05:39:42;0.90;99.90
67163;DHT22;54092;53.088;8.850;2022-12-04T05:42:07;0.90;99.90
67163;DHT22;54092;53.088;8.850;2022-12-04T05:44:33;0.90;99.90
67163;DHT22;54092;53.088;8.850;2022-12-04T05:46:58;0.90;99.90
67163;DHT22;54092;53.088;8.850;2022-12-04T05:49:24;0.90;99.90
67163;DHT22;54092;53.088;8.850;2022-12-04T05:51:52;0.90;99.90
67163;DHT22;54092;53.088;8.850;2022-12-04T05:54:18;0.90;99.90
67163;DHT22;54092;53.088;8.850;2022-12-04T05:56:44;1.00;99.90
67163;DHT22;54092;53.088;8.850;2022-12-04T05:59:09;1.00;99.90
67163;DHT22;54092;53.088;8.850;2022-12-04T06:01:35;1.00;99.90
67163;DHT22;54092;53.088;8.850;2022-12-04T06:04:01;1.00;99.90
67163;DHT22;54092;53.088;8.850;2022-12-04T06:06:26;1.00;99.90
67163;DHT22;54092;53.088;8.850;2022-12-04T06:08:54;1.10;99.90
67163;DHT22;54092;53.088;8.850;2022-12-04T06:11:24;1.10;99.90
67163;DHT22;54092;53.088;8.850;2022-12-04T06:13:50;1.10;99.90
67163;DHT22;54092;53.088;8.850;2022-12-04T06:16:21;1.10;99.90
67163;DHT22;54092;53.088;8.850;2022-12-04T06:18:52;1.10;99.90
67163;DHT22;54092;53.088;8.850;2022-12-04T06:21:19;1.10;99.90
67163;DHT22;54092;53.088;8.850;2022-12-04T06:23:45;1.10;99.90
67163;DHT22;54092;53.088;8.850;2022-12-04T06:26:11;1.00;99.90
67163;DHT22;54092;53.088;8.850;2022-12-04T06:28:37;1.10;99.90
67163;DHT22;54092;53.088;8.850;2022-12-04T06:31:04;1.10;99.90
67163;DHT22;54092;53.088;8.850;2022-12-04T06:33:31;1.10;99.90
67163;DHT22;54092;53.088;8.850;2022-12-04T06:36:08;1.10;99.90
67163;DHT22;54092;53.088;8.850;2022-12-04T06:38:35;1.10;99.90
67163;DHT22;54092;53.088;8.850;2022-12-04T06:41:08;1.10;99.90
67163;DHT22;54092;53.088;8.850;2022-12-04T06:43:35;1.20;99.90
67163;DHT22;54092;53.088;8.850;2022-12-04T06:46:07;1.20;99.90
67163;DHT22;54092;53.088;8.850;2022-12-04T06:48:34;1.20;99.90
67163;DHT22;54092;53.088;8.850;2022-12-04T06:51:02;1.20;99.90
67163;DHT22;54092;53.088;8.850;2022-12-04T06:53:29;1.20;99.90
67163;DHT22;54092;53.088;8.850;2022-12-04T06:55:59;1.30;99.90
67163;DHT22;54092;53.088;8.850;2022-12-04T06:58:25;1.20;99.90
67163;DHT22;54092;53.088;8.850;2022-12-04T07:00:51;1.30;99.90
67163;DHT22;54092;53.088;8.850;2022-12-04T07:03:18;1.30;99.90
67163;DHT22;54092;53.088;8.850;2022-12-04T07:05:43;1.20;99.90
67163;DHT22;54092;53.088;8.850;2022-12-04T07:08:09;1.20;99.90
67163;DHT22;54092;53.088;8.850;2022-12-04T07:10:36;1.20;99.90
67163;DHT22;54092;53.088;8.850;2022-12-04T07:13:02;1.20;99.90
67163;DHT22;54092;53.088;8.850;2022-12-04T07:15:28;1.20;99.90
67163;DHT22;54092;53.088;8.850;2022-12-04T07:17:53;1.20;99.90
67163;DHT22;54092;53.088;8.850;2022-12-04T07:20:19;1.30;99.90
67163;DHT22;54092;53.088;8.850;2022-12-04T07:22:44;1.30;99.90
67163;DHT22;54092;53.088;8.850;2022-12-04T07:25:10;1.30;99.90
67163;DHT22;54092;53.088;8.850;2022-12-04T07:27:36;1.20;99.90
67163;DHT22;54092;53.088;8.850;2022-12-04T07:30:02;1.30;99.90
67163;DHT22;54092;53.088;8.850;2022-12-04T07:32:28;1.30;99.90
67163;DHT22;54092;53.088;8.850;2022-12-04T07:34:53;1.30;99.90
67163;DHT22;54092;53.088;8.850;2022-12-04T07:37:19;1.20;99.90
67163;DHT22;54092;53.088;8.850;2022-12-04T07:39:45;1.30;99.90
67163;DHT22;54092;53.088;8.850;2022-12-04T07:42:10;1.20;99.90
67163;DHT22;54092;53.088;8.850;2022-12-04T07:44:36;1.20;99.90
67163;DHT22;54092;53.088;8.850;2022-12-04T07:47:02;1.20;99.90
67163;DHT22;54092;53.088;8.850;2022-12-04T07:49:27;1.30;99.90
67163;DHT22;54092;53.088;8.850;2022-12-04T07:51:53;1.30;99.90
67163;DHT22;54092;53.088;8.850;2022-12-04T07:54:18;1.30;99.90
67163;DHT22;54092;53.088;8.850;2022-12-04T07:56:44;1.20;99.90
67163;DHT22;54092;53.088;8.850;2022-12-04T07:59:09;1.20;99.90
67163;DHT22;54092;53.088;8.850;2022-12-04T08:01:35;1.30;99.90
67163;DHT22;54092;53.088;8.850;2022-12-04T08:04:00;1.20;99.90
67163;DHT22;54092;53.088;8.850;2022-12-04T08:06:29;1.30;99.90
67163;DHT22;54092;53.088;8.850;2022-12-04T08:08:56;1.30;99.90
67163;DHT22;54092;53.088;8.850;2022-12-04T08:11:24;1.30;99.90
67163;DHT22;54092;53.088;8.850;2022-12-04T08:13:58;1.30;99.90
67163;DHT22;54092;53.088;8.850;2022-12-04T08:16:25;1.40;99.90
67163;DHT22;54092;53.088;8.850;2022-12-04T08:18:52;1.40;99.90
67163;DHT22;54092;53.088;8.850;2022-12-04T08:21:20;1.40;99.90
67163;DHT22;54092;53.088;8.850;2022-12-04T08:23:47;1.40;99.90
67163;DHT22;54092;53.088;8.850;2022-12-04T08:26:14;1.40;99.90
67163;DHT22;54092;53.088;8.850;2022-12-04T08:28:40;1.50;99.90
67163;DHT22;54092;53.088;8.850;2022-12-04T08:31:17;1.40;99.90
67163;DHT22;54092;53.088;8.850;2022-12-04T08:33:44;1.50;99.90
67163;DHT22;54092;53.088;8.850;2022-12-04T08:36:13;1.50;99.90
67163;DHT22;54092;53.088;8.850;2022-12-04T08:38:38;1.50;99.90
67163;DHT22;54092;53.088;8.850;2022-12-04T08:41:06;1.50;99.90
67163;DHT22;54092;53.088;8.850;2022-12-04T08:43:32;1.50;99.90
67163;DHT22;54092;53.088;8.850;2022-12-04T08:46:00;1.50;99.90
67163;DHT22;54092;53.088;8.850;2022-12-04T08:48:26;1.60;99.90
67163;DHT22;54092;53.088;8.850;2022-12-04T08:50:52;1.60;99.90
67163;DHT22;54092;53.088;8.850;2022-12-04T08:53:18;1.60;99.90
67163;DHT22;54092;53.088;8.850;2022-12-04T08:55:44;1.60;99.90
67163;DHT22;54092;53.088;8.850;2022-12-04T08:58:10;1.60;99.90
67163;DHT22;54092;53.088;8.850;2022-12-04T09:00:35;1.70;99.90
67163;DHT22;54092;53.088;8.850;2022-12-04T09:03:01;1.70;99.90
67163;DHT22;54092;53.088;8.850;2022-12-04T09:05:28;1.70;99.90
67163;DHT22;54092;53.088;8.850;2022-12-04T09:07:54;1.70;99.90
67163;DHT22;54092;53.088;8.850;2022-12-04T09:10:19;1.70;99.90
67163;DHT22;54092;53.088;8.850;2022-12-04T09:12:45;1.70;99.90
67163;DHT22;54092;53.088;8.850;2022-12-04T09:15:11;1.80;99.90
67163;DHT22;54092;53.088;8.850;2022-12-04T09:17:36;1.80;99.90
67163;DHT22;54092;53.088;8.850;2022-12-04T09:20:06;1.80;99.90
67163;DHT22;54092;53.088;8.850;2022-12-04T09:22:34;1.80;99.90
67163;DHT22;54092;53.088;8.850;2022-12-04T09:24:59;1.80;99.90
67163;DHT22;54092;53.088;8.850;2022-12-04T09:27:25;1.80;99.90
67163;DHT22;54092;53.088;8.850;2022-12-04T09:29:51;1.90;99.90
67163;DHT22;54092;53.088;8.850;2022-12-04T09:32:16;1.90;99.90
67163;DHT22;54092;53.088;8.850;2022-12-04T09:34:42;1.90;99.90
67163;DHT22;54092;53.088;8.850;2022-12-04T09:37:07;1.90;99.90
67163;DHT22;54092;53.088;8.850;2022-12-04T09:39:33;1.90;99.90
67163;DHT22;54092;53.088;8.850;2022-12-04T09:47:50;1.90;99.90
67163;DHT22;54092;53.088;8.850;2022-12-04T09:50:20;2.00;99.90
67163;DHT22;54092;53.088;8.850;2022-12-04T09:53:16;2.00;99.90
67163;DHT22;54092;53.088;8.850;2022-12-04T09:56:04;1.90;99.90
67163;DHT22;54092;53.088;8.850;2022-12-04T10:03:45;2.00;99.90
67163;DHT22;54092;53.088;8.850;2022-12-04T10:06:25;2.00;99.90
67163;DHT22;54092;53.088;8.850;2022-12-04T10:09:10;2.00;99.90
67163;DHT22;54092;53.088;8.850;2022-12-04T10:20:17;2.00;99.90
67163;DHT22;54092;53.088;8.850;2022-12-04T10:25:20;2.00;99.90
67163;DHT22;54092;53.088;8.850;2022-12-04T10:27:57;2.10;99.90
67163;DHT22;54092;53.088;8.850;2022-12-04T10:30:27;2.00;99.90
67163;DHT22;54092;53.088;8.850;2022-12-04T10:33:00;2.10;99.90
67163;DHT22;54092;53.088;8.850;2022-12-04T10:35:30;2.00;99.90
67163;DHT22;54092;53.088;8.850;2022-12-04T10:38:10;2.00;99.90
67163;DHT22;54092;53.088;8.850;2022-12-04T10:40:47;2.10;99.90
67163;DHT22;54092;53.088;8.850;2022-12-04T10:43:57;2.10;99.90
67163;DHT22;54092;53.088;8.850;2022-12-04T10:46:04;2.10;99.90
67163;DHT22;54092;53.088;8.850;2022-12-04T10:48:35;2.10;99.90
67163;DHT22;54092;53.088;8.850;2022-12-04T10:51:02;2.20;99.90
67163;DHT22;54092;53.088;8.850;2022-12-04T10:53:30;2.20;99.90
67163;DHT22;54092;53.088;8.850;2022-12-04T10:56:13;2.30;99.90
67163;DHT22;54092;53.088;8.850;2022-12-04T10:58:40;2.30;99.90
67163;DHT22;54092;53.088;8.850;2022-12-04T11:01:11;2.30;99.90
67163;DHT22;54092;53.088;8.850;2022-12-04T11:03:39;2.30;99.90
67163;DHT22;54092;53.088;8.850;2022-12-04T11:06:08;2.30;99.90
67163;DHT22;54092;53.088;8.850;2022-12-04T11:08:38;2.40;99.90
67163;DHT22;54092;53.088;8.850;2022-12-04T11:11:11;2.40;99.90
67163;DHT22;54092;53.088;8.850;2022-12-04T11:13:37;2.40;99.90
67163;DHT22;54092;53.088;8.850;2022-12-04T11:16:03;2.40;99.90
67163;DHT22;54092;53.088;8.850;2022-12-04T11:18:33;2.40;99.90
67163;DHT22;54092;53.088;8.850;2022-12-04T11:21:04;2.50;99.90
67163;DHT22;54092;53.088;8.850;2022-12-04T11:23:34;2.40;99.90
67163;DHT22;54092;53.088;8.850;2022-12-04T11:26:06;2.40;99.90
67163;DHT22;54092;53.088;8.850;2022-12-04T11:28:33;2.40;99.90
67163;DHT22;54092;53.088;8.850;2022-12-04T11:31:01;2.40;99.90
67163;DHT22;54092;53.088;8.850;2022-12-04T11:33:29;2.40;99.90
67163;DHT22;54092;53.088;8.850;2022-12-04T11:36:00;2.40;99.90
67163;DHT22;54092;53.088;8.850;2022-12-04T11:38:28;2.40;99.90
67163;DHT22;54092;53.088;8.850;2022-12-04T11:40:57;2.50;99.90
67163;DHT22;54092;53.088;8.850;2022-12-04T11:43:29;2.50;99.90
67163;DHT22;54092;53.088;8.850;2022-12-04T11:46:04;2.50;99.90
67163;DHT22;54092;53.088;8.850;2022-12-04T11:48:44;2.50;99.90
67163;DHT22;54092;53.088;8.850;2022-12-04T11:51:59;2.60;99.90
67163;DHT22;54092;53.088;8.850;2022-12-04T11:54:44;2.60;99.90
67163;DHT22;54092;53.088;8.850;2022-12-04T12:00:10;2.70;99.90
67163;DHT22;54092;53.088;8.850;2022-12-04T12:06:03;2.70;99.90
67163;DHT22;54092;53.088;8.850;2022-12-04T12:08:38;2.80;99.90
67163;DHT22;54092;53.088;8.850;2022-12-04T12:14:11;2.80;99.90
67163;DHT22;54092;53.088;8.850;2022-12-04T12:16:51;2.80;99.90
67163;DHT22;54092;53.088;8.850;2022-12-04T12:19:38;2.80;99.90
67163;DHT22;54092;53.088;8.850;2022-12-04T12:25:05;2.90;99.90
67163;DHT22;54092;53.088;8.850;2022-12-04T12:30:31;2.90;99.90
67163;DHT22;54092;53.088;8.850;2022-12-04T12:33:08;2.90;99.90
67163;DHT22;54092;53.088;8.850;2022-12-04T12:35:47;2.90;99.90
67163;DHT22;54092;53.088;8.850;2022-12-04T12:38:23;3.00;99.90
67163;DHT22;54092;53.088;8.850;2022-12-04T12:40:56;3.00;99.90
67163;DHT22;54092;53.088;8.850;2022-12-04T12:48:25;3.10;99.90
67163;DHT22;54092;53.088;8.850;2022-12-04T12:51:07;3.10;99.90
67163;DHT22;54092;53.088;8.850;2022-12-04T12:53:38;3.20;99.90
67163;DHT22;54092;53.088;8.850;2022-12-04T12:56:07;3.10;99.90
67163;DHT22;54092;53.088;8.850;2022-12-04T12:58:39;3.10;99.90
67163;DHT22;54092;53.088;8.850;2022-12-04T13:01:21;3.10;99.90
67163;DHT22;54092;53.088;8.850;2022-12-04T13:04:07;3.10;99.90
67163;DHT22;54092;53.088;8.850;2022-12-04T13:06:38;3.10;99.90
67163;DHT22;54092;53.088;8.850;2022-12-04T13:11:39;3.10;99.90
67163;DHT22;54092;53.088;8.850;2022-12-04T13:14:05;3.10;99.90
67163;DHT22;54092;53.088;8.850;2022-12-04T13:19:37;3.10;99.90
67163;DHT22;54092;53.088;8.850;2022-12-04T13:30:15;3.10;99.90
67163;DHT22;54092;53.088;8.850;2022-12-04T13:41:03;3.10;99.90
67163;DHT22;54092;53.088;8.850;2022-12-04T13:44:10;3.10;99.90
67163;DHT22;54092;53.088;8.850;2022-12-04T13:46:24;3.10;99.90
67163;DHT22;54092;53.088;8.850;2022-12-04T13:48:51;3.20;99.90
67163;DHT22;54092;53.088;8.850;2022-12-04T13:51:36;3.10;99.90
67163;DHT22;54092;53.088;8.850;2022-12-04T13:54:27;3.20;99.90
67163;DHT22;54092;53.088;8.850;2022-12-04T13:57:08;3.20;99.90
67163;DHT22;54092;53.088;8.850;2022-12-04T13:59:37;3.10;99.90
67163;DHT22;54092;53.088;8.850;2022-12-04T14:04:56;3.20;99.90
67163;DHT22;54092;53.088;8.850;2022-12-04T14:07:33;3.20;99.90
67163;DHT22;54092;53.088;8.850;2022-12-04T14:10:04;3.20;99.90
67163;DHT22;54092;53.088;8.850;2022-12-04T14:12:32;3.20;99.90
67163;DHT22;54092;53.088;8.850;2022-12-04T14:15:02;3.20;99.90
67163;DHT22;54092;53.088;8.850;2022-12-04T14:17:31;3.20;99.90
67163;DHT22;54092;53.088;8.850;2022-12-04T14:20:00;3.20;99.90
67163;DHT22;54092;53.088;8.850;2022-12-04T14:30:21;3.20;99.90
67163;DHT22;54092;53.088;8.850;2022-12-04T14:32:49;3.30;99.90
67163;DHT22;54092;53.088;8.850;2022-12-04T14:35:20;3.30;99.90
67163;DHT22;54092;53.088;8.850;2022-12-04T14:38:10;3.30;99.90
67163;DHT22;54092;53.088;8.850;2022-12-04T14:40:44;3.30;99.90
67163;DHT22;54092;53.088;8.850;2022-12-04T14:43:18;3.20;99.90
67163;DHT22;54092;53.088;8.850;2022-12-04T14:46:06;3.30;99.90
67163;DHT22;54092;53.088;8.850;2022-12-04T14:48:59;3.20;99.90
67163;DHT22;54092;53.088;8.850;2022-12-04T14:54:57;3.20;99.90
67163;DHT22;54092;53.088;8.850;2022-12-04T14:59:57;3.20;99.90
67163;DHT22;54092;53.088;8.850;2022-12-04T15:02:34;3.20;99.90
67163;DHT22;54092;53.088;8.850;2022-12-04T15:05:02;3.20;99.90
67163;DHT22;54092;53.088;8.850;2022-12-04T15:07:32;3.20;99.90
67163;DHT22;54092;53.088;8.850;2022-12-04T15:10:00;3.30;99.90
67163;DHT22;54092;53.088;8.850;2022-12-04T15:12:51;3.20;99.90
67163;DHT22;54092;53.088;8.850;2022-12-04T15:15:35;3.30;99.90
67163;DHT22;54092;53.088;8.850;2022-12-04T15:18:12;3.30;99.90
67163;DHT22;54092;53.088;8.850;2022-12-04T15:23:14;3.30;99.90
67163;DHT22;54092;53.088;8.850;2022-12-04T15:25:45;3.30;99.90
67163;DHT22;54092;53.088;8.850;2022-12-04T15:28:25;3.30;99.90
67163;DHT22;54092;53.088;8.850;2022-12-04T15:30:53;3.30;99.90
67163;DHT22;54092;53.088;8.850;2022-12-04T15:33:22;3.30;99.90
67163;DHT22;54092;53.088;8.850;2022-12-04T15:35:53;3.30;99.90
67163;DHT22;54092;53.088;8.850;2022-12-04T15:38:20;3.30;99.90
67163;DHT22;54092;53.088;8.850;2022-12-04T15:40:54;3.30;99.90
67163;DHT22;54092;53.088;8.850;2022-12-04T15:43:28;3.30;99.90
67163;DHT22;54092;53.088;8.850;2022-12-04T15:45:54;3.30;99.90
67163;DHT22;54092;53.088;8.850;2022-12-04T15:48:30;3.30;99.90
67163;DHT22;54092;53.088;8.850;2022-12-04T15:50:57;3.30;99.90
67163;DHT22;54092;53.088;8.850;2022-12-04T15:53:33;3.30;99.90
67163;DHT22;54092;53.088;8.850;2022-12-04T15:56:03;3.30;99.90
67163;DHT22;54092;53.088;8.850;2022-12-04T15:58:32;3.30;99.90
67163;DHT22;54092;53.088;8.850;2022-12-04T16:01:04;3.30;99.90
67163;DHT22;54092;53.088;8.850;2022-12-04T16:08:50;3.40;99.90
67163;DHT22;54092;53.088;8.850;2022-12-04T16:16:29;3.40;99.90
67163;DHT22;54092;53.088;8.850;2022-12-04T16:18:55;3.40;99.90
67163;DHT22;54092;53.088;8.850;2022-12-04T16:21:26;3.40;99.90
67163;DHT22;54092;53.088;8.850;2022-12-04T16:23:59;3.40;99.90
67163;DHT22;54092;53.088;8.850;2022-12-04T16:26:25;3.40;99.90
67163;DHT22;54092;53.088;8.850;2022-12-04T16:28:50;3.40;99.90
67163;DHT22;54092;53.088;8.850;2022-12-04T16:31:17;3.40;99.90
67163;DHT22;54092;53.088;8.850;2022-12-04T16:33:43;3.50;99.90
67163;DHT22;54092;53.088;8.850;2022-12-04T16:36:09;3.50;99.90
67163;DHT22;54092;53.088;8.850;2022-12-04T16:38:35;3.40;99.90
67163;DHT22;54092;53.088;8.850;2022-12-04T16:41:03;3.50;99.90
67163;DHT22;54092;53.088;8.850;2022-12-04T16:43:29;3.40;99.90
67163;DHT22;54092;53.088;8.850;2022-12-04T16:45:57;3.40;99.90
67163;DHT22;54092;53.088;8.850;2022-12-04T16:48:23;3.50;99.90
67163;DHT22;54092;53.088;8.850;2022-12-04T16:50:49;3.50;99.90
67163;DHT22;54092;53.088;8.850;2022-12-04T16:53:16;3.50;99.90
67163;DHT22;54092;53.088;8.850;2022-12-04T16:55:45;3.50;99.90
67163;DHT22;54092;53.088;8.850;2022-12-04T16:58:11;3.60;99.90
67163;DHT22;54092;53.088;8.850;2022-12-04T17:00:38;3.60;99.90
67163;DHT22;54092;53.088;8.850;2022-12-04T17:03:04;3.60;99.90
67163;DHT22;54092;53.088;8.850;2022-12-04T17:05:31;3.60;99.90
67163;DHT22;54092;53.088;8.850;2022-12-04T17:08:00;3.50;99.90
67163;DHT22;54092;53.088;8.850;2022-12-04T17:10:26;3.60;99.90
67163;DHT22;54092;53.088;8.850;2022-12-04T17:12:52;3.60;99.90
67163;DHT22;54092;53.088;8.850;2022-12-04T17:15:18;3.60;99.90
67163;DHT22;54092;53.088;8.850;2022-12-04T17:17:44;3.60;99.90
67163;DHT22;54092;53.088;8.850;2022-12-04T17:20:13;3.60;99.90
67163;DHT22;54092;53.088;8.850;2022-12-04T17:22:39;3.60;99.90
67163;DHT22;54092;53.088;8.850;2022-12-04T17:25:05;3.60;99.90
67163;DHT22;54092;53.088;8.850;2022-12-04T17:27:31;3.60;99.90
67163;DHT22;54092;53.088;8.850;2022-12-04T17:29:57;3.60;99.90
67163;DHT22;54092;53.088;8.850;2022-12-04T17:32:24;3.60;99.90
67163;DHT22;54092;53.088;8.850;2022-12-04T17:34:51;3.60;99.90
67163;DHT22;54092;53.088;8.850;2022-12-04T17:37:17;3.70;99.90
67163;DHT22;54092;53.088;8.850;2022-12-04T17:39:42;3.60;99.90
67163;DHT22;54092;53.088;8.850;2022-12-04T17:42:08;3.70;99.90
67163;DHT22;54092;53.088;8.850;2022-12-04T17:44:33;3.70;99.90
67163;DHT22;54092;53.088;8.850;2022-12-04T17:46:59;3.60;99.90
67163;DHT22;54092;53.088;8.850;2022-12-04T17:49:24;3.70;99.90
67163;DHT22;54092;53.088;8.850;2022-12-04T17:51:50;3.70;99.90
67163;DHT22;54092;53.088;8.850;2022-12-04T17:54:15;3.70;99.90
67163;DHT22;54092;53.088;8.850;2022-12-04T17:56:41;3.70;99.90
67163;DHT22;54092;53.088;8.850;2022-12-04T17:59:07;3.70;99.90
67163;DHT22;54092;53.088;8.850;2022-12-04T18:01:33;3.70;99.90
67163;DHT22;54092;53.088;8.850;2022-12-04T18:04:02;3.70;99.90